Sevierville, TN

09:14 AM EDT on Julhet 28, 2015 (GMT -0400)
APRSWXNET | | Change Station
CLOSE
Current Station
Personal Weather Stations
Location: Sevierville, TN
Elevation: 1184 ft
Nearby Weather Stations

Elev 1184 ft 35.88 °N, 83.56 °W | Updated 17 minutes ago

Clar
Clar
78 °F
Feels Like 80 °F
N
1
vent Variadís vent from SSE
Gusts 0.0 mph

Auèi
High -- | Low -- °F
--% Chance of Precip.
Yesterday
High -- | Low -- °F
Precip. -- Dins
6:38 AM 8:42 PM
Waxing Gibbous, 89% visible
Pression 29.99 Dins
Visibilitat 7.0 miles
Nivols Subretot nivolós 25000 ft
Indèx de calor 80 °F
Punt de ròs 73 °F
Imor 84%
Rainfall Dins
Snow Depth Not available.
UV 1 out of 12
Pollen 3.80 out of 12
Air Quality Not available.
Flu Activity Not available.
METAR KTYS 281253Z 05003KT 7SM BKN250 24/23 A3003 RMK AO2 SLP156 T02440228

More Conditions Fewer Conditions

Pression 29.99 Dins
Visibilitat 7.0 miles
Nivols Subretot nivolós 25000 ft
Indèx de calor 80 °F
Punt de ròs 73 °F
Imor 84%
Rainfall Dins
Snow Depth Not available.
UV 1 out of 12
Pollen 3.80 out of 12
Air Quality Not available.
Flu Activity Not available.
METAR KTYS 281253Z 05003KT 7SM BKN250 24/23 A3003 RMK AO2 SLP156 T02440228

More Conditions Fewer Conditions

10-Day Weather Forecast

×

Almanac

Astronomy

Jul. 28, 2015 Rise Set
Actual Time
Civil Twilight
Nautical Twilight
Astronomical Twilight
Luna
Length Of Visible Light
Length of Day
Tomorrow will be .
, % of the Moon is Illuminated

Today's Extremes

State Highs State Lows

Community

WunderPhotos

Upload Photos

1,841,829 photos uploaded!

WunderBlogs® & News

Nearby

Air Quality

  Air Quality AQ Index Pollutant
Not available.

Snow Depth

Station Depth Elevation

Earthquake Activity

Vila Distance Mag. Time & Date
Minimum magnitude displayed is 2.5.

Coastal Water Temperatures

Luòc Temperatura

Stations

Nearby Weather Stations

Station Location Temp Vent freg Punt de ròs Imor vent Precip. Elev Mes al jorn Type